createdAt,value
2023-02-20T00:02:34.146Z,6.90
2023-02-20T00:12:38.476Z,7.01
2023-02-20T00:22:41.128Z,6.96
2023-02-20T00:32:45.349Z,6.97
2023-02-20T00:42:48.391Z,7.17
2023-02-20T00:52:52.385Z,6.98
2023-02-20T01:02:55.341Z,7.03
2023-02-20T01:12:59.338Z,7.16
2023-02-20T01:23:02.203Z,7.15
2023-02-20T01:33:06.312Z,7.33
2023-02-20T01:43:08.933Z,7.48
2023-02-20T01:53:15.818Z,7.43
2023-02-20T02:03:22.158Z,7.42
2023-02-20T02:13:26.117Z,7.55
2023-02-20T02:23:54.156Z,7.57
2023-02-20T02:34:17.989Z,7.64
2023-02-20T02:44:27.809Z,7.69
2023-02-20T02:54:30.868Z,7.77
2023-02-20T03:04:36.998Z,7.70
2023-02-20T03:15:02.674Z,7.60
2023-02-20T03:25:12.462Z,7.67
2023-02-20T03:35:34.696Z,7.68
2023-02-20T03:45:42.442Z,7.56
2023-02-20T03:55:46.413Z,7.74
2023-02-20T04:05:53.412Z,7.78
2023-02-20T04:15:59.530Z,7.61
2023-02-20T04:26:07.705Z,7.69
2023-02-20T04:36:11.644Z,7.59
2023-02-20T04:46:16.210Z,7.59
2023-02-20T04:56:18.990Z,7.71
2023-02-20T05:06:22.928Z,7.77
2023-02-20T05:16:25.527Z,7.84
2023-02-20T05:26:29.600Z,7.87
2023-02-20T05:36:32.322Z,8.05
2023-02-20T05:46:40.515Z,8.15
2023-02-20T05:56:43.385Z,8.17
2023-02-20T06:06:48.692Z,8.33
2023-02-20T06:16:51.720Z,8.26
2023-02-20T06:26:55.768Z,8.44
2023-02-20T06:36:58.406Z,8.45
2023-02-20T06:47:02.452Z,8.50
2023-02-20T06:57:05.185Z,8.56
2023-02-20T07:07:09.521Z,8.71
2023-02-20T07:17:12.288Z,8.76
2023-02-20T07:27:16.286Z,8.83
2023-02-20T07:37:18.934Z,8.86
2023-02-20T07:47:22.979Z,8.95
2023-02-20T07:57:25.888Z,9.02
2023-02-20T08:07:30.102Z,9.04
2023-02-20T08:17:45.554Z,9.04
2023-02-20T08:27:50.934Z,9.16
2023-02-20T08:37:53.542Z,9.30
2023-02-20T08:48:01.776Z,9.45
2023-02-20T08:58:04.654Z,9.51
2023-02-20T09:08:08.640Z,9.63
2023-02-20T09:18:14.636Z,9.63
2023-02-20T09:28:18.652Z,9.75
2023-02-20T09:38:22.432Z,9.86
2023-02-20T09:48:41.113Z,9.90
2023-02-20T09:58:46.700Z,9.89
2023-02-20T10:08:52.374Z,10.05
2023-02-20T10:19:15.392Z,10.04
2023-02-20T10:29:22.820Z,10.00
2023-02-20T10:39:27.315Z,10.01
2023-02-20T10:49:39.666Z,9.94
2023-02-20T10:59:47.230Z,10.04
2023-02-20T11:09:51.340Z,10.23
2023-02-20T11:19:55.418Z,10.48
2023-02-20T11:30:02.780Z,10.56
2023-02-20T11:40:07.511Z,10.64
2023-02-20T11:50:20.715Z,10.65
2023-02-20T12:00:25.786Z,10.51
2023-02-20T12:10:48.767Z,10.59
2023-02-20T12:20:57.460Z,10.55
2023-02-20T12:31:16.213Z,10.62
2023-02-20T12:41:30.508Z,10.55
2023-02-20T12:51:42.668Z,10.68
2023-02-20T13:01:45.783Z,10.75
2023-02-20T13:11:54.608Z,10.75
2023-02-20T13:21:59.085Z,11.04
2023-02-20T13:32:05.155Z,10.82
2023-02-20T13:42:40.597Z,10.93
2023-02-20T13:52:45.712Z,10.95
2023-02-20T14:02:48.333Z,10.84
2023-02-20T14:13:00.161Z,11.07
2023-02-20T14:23:21.340Z,11.04
2023-02-20T14:33:30.150Z,11.01
2023-02-20T14:43:33.071Z,11.08
2023-02-20T14:53:37.973Z,11.13
2023-02-20T15:03:40.655Z,11.22
2023-02-20T15:13:46.890Z,11.14
2023-02-20T15:23:49.539Z,11.25
2023-02-20T15:33:55.120Z,11.19
2023-02-20T15:43:58.316Z,11.33
2023-02-20T15:54:02.373Z,11.26
2023-02-20T16:04:06.797Z,11.44
2023-02-20T16:14:13.844Z,11.39
2023-02-20T16:24:17.310Z,11.42
2023-02-20T16:34:22.423Z,11.46
2023-02-20T16:44:31.029Z,11.41
2023-02-20T16:54:35.060Z,11.37
2023-02-20T17:04:37.929Z,11.23
2023-02-20T17:14:42.101Z,11.19
2023-02-20T17:24:45.428Z,10.96
2023-02-20T17:34:50.277Z,10.86
2023-02-20T17:44:53.254Z,10.84
2023-02-20T17:54:57.267Z,10.87
2023-02-20T18:04:59.887Z,10.88
2023-02-20T18:15:04.315Z,10.68
2023-02-20T18:25:10.025Z,10.44
2023-02-20T18:35:14.091Z,10.65
2023-02-20T18:45:16.878Z,10.55
2023-02-20T18:55:20.908Z,10.41
2023-02-20T19:05:25.464Z,10.42
2023-02-20T19:15:29.504Z,10.50
2023-02-20T19:25:32.344Z,10.48
2023-02-20T19:35:36.392Z,10.53
2023-02-20T19:45:39.320Z,10.44
2023-02-20T19:55:43.357Z,10.46
2023-02-20T20:05:46.627Z,10.50
2023-02-20T20:15:51.091Z,10.59
2023-02-20T20:25:53.894Z,10.67
2023-02-20T20:35:59.111Z,10.67
2023-02-20T20:46:02.901Z,10.69
2023-02-20T20:56:08.083Z,10.64
2023-02-20T21:06:10.821Z,10.58
2023-02-20T21:16:15.360Z,10.64
2023-02-20T21:26:18.024Z,10.62
2023-02-20T21:36:22.411Z,10.70
2023-02-20T21:46:25.061Z,10.67
2023-02-20T21:56:29.119Z,10.72
2023-02-20T22:06:31.429Z,10.79
2023-02-20T22:16:53.060Z,10.77
2023-02-20T22:27:15.146Z,10.80
2023-02-20T22:37:36.652Z,10.58
2023-02-20T22:47:57.157Z,10.68
2023-02-20T22:58:18.600Z,10.63
2023-02-20T23:08:38.912Z,10.57
2023-02-20T23:19:00.635Z,10.63
2023-02-20T23:29:20.925Z,10.56
2023-02-20T23:39:42.261Z,10.58
2023-02-20T23:50:02.613Z,10.52
